sensor_id;sensor_type;location;lat;lon;timestamp;temperature;humidity
41080;DHT22;26826;50.718;7.114;2022-10-16T00:08:42;14.90;99.90
41080;DHT22;26826;50.718;7.114;2022-10-16T00:18:43;15.00;99.90
41080;DHT22;26826;50.718;7.114;2022-10-16T00:28:47;15.00;99.90
41080;DHT22;26826;50.718;7.114;2022-10-16T00:38:50;14.90;99.90
41080;DHT22;26826;50.718;7.114;2022-10-16T00:48:57;14.80;99.90
41080;DHT22;26826;50.718;7.114;2022-10-16T00:59:04;14.60;99.90
41080;DHT22;26826;50.718;7.114;2022-10-16T01:09:23;14.50;99.90
41080;DHT22;26826;50.718;7.114;2022-10-16T01:30:12;14.20;99.90
41080;DHT22;26826;50.718;7.114;2022-10-16T01:40:16;14.20;99.90
41080;DHT22;26826;50.718;7.114;2022-10-16T01:50:19;14.10;99.90
41080;DHT22;26826;50.718;7.114;2022-10-16T02:00:22;14.00;99.90
41080;DHT22;26826;50.718;7.114;2022-10-16T02:10:24;14.00;99.90
41080;DHT22;26826;50.718;7.114;2022-10-16T02:20:29;14.10;99.90
41080;DHT22;26826;50.718;7.114;2022-10-16T02:30:58;14.20;99.90
41080;DHT22;26826;50.718;7.114;2022-10-16T02:41:01;14.40;99.90
41080;DHT22;26826;50.718;7.114;2022-10-16T02:51:02;14.40;99.90
41080;DHT22;26826;50.718;7.114;2022-10-16T03:01:02;14.40;99.90
41080;DHT22;26826;50.718;7.114;2022-10-16T03:11:03;14.30;99.90
41080;DHT22;26826;50.718;7.114;2022-10-16T03:21:03;14.30;99.90
41080;DHT22;26826;50.718;7.114;2022-10-16T03:31:04;14.40;99.90
41080;DHT22;26826;50.718;7.114;2022-10-16T03:41:04;14.30;99.90
41080;DHT22;26826;50.718;7.114;2022-10-16T03:51:06;14.30;99.90
41080;DHT22;26826;50.718;7.114;2022-10-16T04:01:06;14.40;99.90
41080;DHT22;26826;50.718;7.114;2022-10-16T04:11:07;14.40;99.90
41080;DHT22;26826;50.718;7.114;2022-10-16T04:21:08;14.60;99.90
41080;DHT22;26826;50.718;7.114;2022-10-16T04:31:08;14.60;99.90
41080;DHT22;26826;50.718;7.114;2022-10-16T04:41:09;14.60;99.90
41080;DHT22;26826;50.718;7.114;2022-10-16T04:51:10;14.60;99.90
41080;DHT22;26826;50.718;7.114;2022-10-16T05:01:11;14.60;99.90
41080;DHT22;26826;50.718;7.114;2022-10-16T05:11:11;14.50;99.90
41080;DHT22;26826;50.718;7.114;2022-10-16T05:21:12;14.50;99.90
41080;DHT22;26826;50.718;7.114;2022-10-16T05:31:12;14.40;99.90
41080;DHT22;26826;50.718;7.114;2022-10-16T05:41:13;14.50;99.90
41080;DHT22;26826;50.718;7.114;2022-10-16T05:51:14;14.60;99.90
41080;DHT22;26826;50.718;7.114;2022-10-16T06:01:17;14.60;99.90
41080;DHT22;26826;50.718;7.114;2022-10-16T06:11:23;14.70;99.90
41080;DHT22;26826;50.718;7.114;2022-10-16T06:21:25;14.80;99.90
41080;DHT22;26826;50.718;7.114;2022-10-16T06:31:27;14.90;99.90
41080;DHT22;26826;50.718;7.114;2022-10-16T06:41:30;14.90;99.90
41080;DHT22;26826;50.718;7.114;2022-10-16T06:51:31;14.90;99.90
41080;DHT22;26826;50.718;7.114;2022-10-16T07:01:34;14.80;99.90
41080;DHT22;26826;50.718;7.114;2022-10-16T07:11:37;14.90;99.90
41080;DHT22;26826;50.718;7.114;2022-10-16T07:21:37;15.00;99.90
41080;DHT22;26826;50.718;7.114;2022-10-16T07:31:38;15.10;99.90
41080;DHT22;26826;50.718;7.114;2022-10-16T07:41:39;15.10;99.90
41080;DHT22;26826;50.718;7.114;2022-10-16T07:51:39;15.30;99.90
41080;DHT22;26826;50.718;7.114;2022-10-16T08:01:40;15.30;99.90
41080;DHT22;26826;50.718;7.114;2022-10-16T08:11:42;15.60;99.90
41080;DHT22;26826;50.718;7.114;2022-10-16T08:21:42;15.80;99.90
41080;DHT22;26826;50.718;7.114;2022-10-16T08:31:47;15.90;99.90
41080;DHT22;26826;50.718;7.114;2022-10-16T08:42:08;16.30;99.90
41080;DHT22;26826;50.718;7.114;2022-10-16T08:52:12;16.80;99.90
41080;DHT22;26826;50.718;7.114;2022-10-16T09:02:28;17.00;99.90
41080;DHT22;26826;50.718;7.114;2022-10-16T09:12:51;17.30;99.90
41080;DHT22;26826;50.718;7.114;2022-10-16T09:23:12;17.80;99.90
41080;DHT22;26826;50.718;7.114;2022-10-16T09:33:14;18.00;99.90
41080;DHT22;26826;50.718;7.114;2022-10-16T09:43:40;18.50;99.90
41080;DHT22;26826;50.718;7.114;2022-10-16T09:53:44;19.50;99.90
41080;DHT22;26826;50.718;7.114;2022-10-16T10:03:45;20.80;99.90
41080;DHT22;26826;50.718;7.114;2022-10-16T10:13:47;21.60;99.90
41080;DHT22;26826;50.718;7.114;2022-10-16T10:23:55;22.10;99.90
41080;DHT22;26826;50.718;7.114;2022-10-16T10:34:30;22.40;99.90
41080;DHT22;26826;50.718;7.114;2022-10-16T10:45:06;23.90;99.90
41080;DHT22;26826;50.718;7.114;2022-10-16T10:55:36;23.70;99.90
41080;DHT22;26826;50.718;7.114;2022-10-16T11:05:51;24.20;99.90
41080;DHT22;26826;50.718;7.114;2022-10-16T11:15:57;23.40;99.90
41080;DHT22;26826;50.718;7.114;2022-10-16T11:26:02;24.10;99.90
41080;DHT22;26826;50.718;7.114;2022-10-16T11:46:20;24.00;99.90
41080;DHT22;26826;50.718;7.114;2022-10-16T11:56:22;23.00;99.90
41080;DHT22;26826;50.718;7.114;2022-10-16T12:06:37;22.30;99.90
41080;DHT22;26826;50.718;7.114;2022-10-16T12:16:55;22.50;99.90
41080;DHT22;26826;50.718;7.114;2022-10-16T12:26:56;22.20;99.90
41080;DHT22;26826;50.718;7.114;2022-10-16T12:47:23;22.30;99.90
41080;DHT22;26826;50.718;7.114;2022-10-16T13:08:34;21.40;99.90
41080;DHT22;26826;50.718;7.114;2022-10-16T13:18:56;21.90;99.90
41080;DHT22;26826;50.718;7.114;2022-10-16T13:29:00;22.10;99.90
41080;DHT22;26826;50.718;7.114;2022-10-16T13:49:17;20.90;99.90
41080;DHT22;26826;50.718;7.114;2022-10-16T13:59:24;20.80;99.90
41080;DHT22;26826;50.718;7.114;2022-10-16T14:09:29;21.30;99.90
41080;DHT22;26826;50.718;7.114;2022-10-16T14:19:31;21.30;99.90
41080;DHT22;26826;50.718;7.114;2022-10-16T14:29:32;21.00;99.90
41080;DHT22;26826;50.718;7.114;2022-10-16T14:39:33;20.80;99.90
41080;DHT22;26826;50.718;7.114;2022-10-16T14:49:34;20.40;99.90
41080;DHT22;26826;50.718;7.114;2022-10-16T14:59:40;20.50;99.90
41080;DHT22;26826;50.718;7.114;2022-10-16T15:09:41;20.20;99.90
41080;DHT22;26826;50.718;7.114;2022-10-16T15:19:42;20.10;99.90
41080;DHT22;26826;50.718;7.114;2022-10-16T15:29:42;20.00;99.90
41080;DHT22;26826;50.718;7.114;2022-10-16T15:39:43;19.90;99.90
41080;DHT22;26826;50.718;7.114;2022-10-16T15:49:43;19.80;99.90
41080;DHT22;26826;50.718;7.114;2022-10-16T15:59:44;19.60;99.90
41080;DHT22;26826;50.718;7.114;2022-10-16T16:09:44;19.60;99.90
41080;DHT22;26826;50.718;7.114;2022-10-16T16:19:45;19.50;99.90
41080;DHT22;26826;50.718;7.114;2022-10-16T16:29:47;19.30;99.90
41080;DHT22;26826;50.718;7.114;2022-10-16T16:39:47;19.20;99.90
41080;DHT22;26826;50.718;7.114;2022-10-16T16:49:48;19.00;99.90
41080;DHT22;26826;50.718;7.114;2022-10-16T16:59:50;18.90;99.90
41080;DHT22;26826;50.718;7.114;2022-10-16T17:09:51;18.80;99.90
41080;DHT22;26826;50.718;7.114;2022-10-16T17:19:52;18.60;99.90
41080;DHT22;26826;50.718;7.114;2022-10-16T17:29:52;18.50;99.90
41080;DHT22;26826;50.718;7.114;2022-10-16T17:39:53;18.50;99.90
41080;DHT22;26826;50.718;7.114;2022-10-16T17:49:54;18.50;99.90
41080;DHT22;26826;50.718;7.114;2022-10-16T17:59:55;18.40;99.90
41080;DHT22;26826;50.718;7.114;2022-10-16T18:09:55;18.30;99.90
41080;DHT22;26826;50.718;7.114;2022-10-16T18:19:56;18.30;99.90
41080;DHT22;26826;50.718;7.114;2022-10-16T18:29:56;18.10;99.90
41080;DHT22;26826;50.718;7.114;2022-10-16T18:39:57;18.10;99.90
41080;DHT22;26826;50.718;7.114;2022-10-16T18:49:58;17.90;99.90
41080;DHT22;26826;50.718;7.114;2022-10-16T18:59:58;17.80;99.90
41080;DHT22;26826;50.718;7.114;2022-10-16T19:09:59;17.80;99.90
41080;DHT22;26826;50.718;7.114;2022-10-16T19:19:59;17.70;99.90
41080;DHT22;26826;50.718;7.114;2022-10-16T19:30:00;17.70;99.90
41080;DHT22;26826;50.718;7.114;2022-10-16T19:40:00;17.70;99.90
41080;DHT22;26826;50.718;7.114;2022-10-16T19:50:01;17.60;99.90
41080;DHT22;26826;50.718;7.114;2022-10-16T20:00:07;17.60;99.90
41080;DHT22;26826;50.718;7.114;2022-10-16T20:10:08;17.40;99.90
41080;DHT22;26826;50.718;7.114;2022-10-16T20:20:11;17.30;99.90
41080;DHT22;26826;50.718;7.114;2022-10-16T20:30:17;17.40;99.90
41080;DHT22;26826;50.718;7.114;2022-10-16T20:40:18;17.50;99.90
41080;DHT22;26826;50.718;7.114;2022-10-16T20:50:18;17.50;99.90
41080;DHT22;26826;50.718;7.114;2022-10-16T21:00:19;17.50;99.90
41080;DHT22;26826;50.718;7.114;2022-10-16T21:10:20;17.40;99.90
41080;DHT22;26826;50.718;7.114;2022-10-16T21:20:21;17.30;99.90
41080;DHT22;26826;50.718;7.114;2022-10-16T21:30:21;17.10;99.90
41080;DHT22;26826;50.718;7.114;2022-10-16T21:40:56;17.20;99.90
41080;DHT22;26826;50.718;7.114;2022-10-16T21:51:13;17.30;99.90
41080;DHT22;26826;50.718;7.114;2022-10-16T22:01:16;17.10;99.90
41080;DHT22;26826;50.718;7.114;2022-10-16T22:11:20;17.10;99.90
41080;DHT22;26826;50.718;7.114;2022-10-16T22:21:22;17.10;99.90
41080;DHT22;26826;50.718;7.114;2022-10-16T22:31:23;17.20;99.90
41080;DHT22;26826;50.718;7.114;2022-10-16T22:41:24;17.20;99.90
41080;DHT22;26826;50.718;7.114;2022-10-16T22:51:26;17.30;99.90
41080;DHT22;26826;50.718;7.114;2022-10-16T23:01:30;17.30;99.90
41080;DHT22;26826;50.718;7.114;2022-10-16T23:11:30;17.30;99.90
41080;DHT22;26826;50.718;7.114;2022-10-16T23:21:31;17.40;99.90
41080;DHT22;26826;50.718;7.114;2022-10-16T23:31:32;17.40;99.90
41080;DHT22;26826;50.718;7.114;2022-10-16T23:41:32;17.50;99.90
41080;DHT22;26826;50.718;7.114;2022-10-16T23:51:33;17.60;99.90
